createdAt,value
2019-05-25T00:01:07.674Z,64.70
2019-05-25T00:03:37.816Z,64.90
2019-05-25T00:06:07.938Z,64.50
2019-05-25T00:08:38.404Z,64.70
2019-05-25T00:11:08.465Z,64.70
2019-05-25T00:13:38.517Z,64.70
2019-05-25T00:16:08.716Z,65.00
2019-05-25T00:18:38.758Z,64.90
2019-05-25T00:21:08.870Z,64.30
2019-05-25T00:23:38.918Z,66.10
2019-05-25T00:26:09.045Z,65.40
2019-05-25T00:28:39.573Z,65.30
2019-05-25T00:31:09.698Z,64.80
2019-05-25T00:33:39.753Z,65.80
2019-05-25T00:36:09.782Z,65.80
2019-05-25T00:38:40.254Z,65.50
2019-05-25T00:41:10.285Z,66.20
2019-05-25T00:43:40.400Z,66.00
2019-05-25T00:46:10.963Z,66.10
2019-05-25T00:48:41.443Z,66.50
2019-05-25T00:51:11.554Z,66.60
2019-05-25T00:53:42.011Z,67.00
2019-05-25T00:56:12.110Z,66.80
2019-05-25T00:58:42.214Z,66.80
2019-05-25T01:01:12.299Z,66.70
2019-05-25T01:03:42.350Z,66.80
2019-05-25T01:06:12.474Z,66.90
2019-05-25T01:08:43.940Z,66.60
2019-05-25T01:11:14.052Z,66.90
2019-05-25T01:13:44.588Z,66.90
2019-05-25T01:16:14.699Z,67.30
2019-05-25T01:18:45.163Z,67.30
2019-05-25T01:21:15.557Z,67.20
2019-05-25T01:23:45.597Z,67.30
2019-05-25T01:26:15.715Z,67.70
2019-05-25T01:28:45.773Z,67.70
2019-05-25T01:31:17.169Z,67.60
2019-05-25T01:33:47.208Z,67.90
2019-05-25T01:36:17.815Z,68.10
2019-05-25T01:38:47.859Z,67.90
2019-05-25T01:41:18.381Z,67.90
2019-05-25T01:43:48.432Z,67.90
2019-05-25T01:46:18.490Z,68.00
2019-05-25T01:48:48.537Z,68.20
2019-05-25T01:51:18.970Z,68.40
2019-05-25T01:53:49.017Z,68.30
2019-05-25T01:56:19.059Z,68.40
2019-05-25T01:58:49.404Z,68.40
2019-05-25T02:01:19.534Z,68.40
2019-05-25T02:03:49.639Z,68.30
2019-05-25T02:06:19.751Z,68.30
2019-05-25T02:08:49.790Z,68.40
2019-05-25T02:11:19.909Z,68.70
2019-05-25T02:13:50.060Z,68.80
2019-05-25T02:16:20.110Z,68.90
2019-05-25T02:18:50.145Z,69.00
2019-05-25T02:21:20.199Z,69.30
2019-05-25T02:23:50.316Z,69.40
2019-05-25T02:26:20.732Z,69.40
2019-05-25T02:28:51.106Z,69.40
2019-05-25T02:31:21.669Z,69.40
2019-05-25T02:33:51.719Z,69.30
2019-05-25T02:36:22.121Z,69.30
2019-05-25T02:38:52.242Z,69.60
2019-05-25T02:41:23.314Z,69.70
2019-05-25T02:43:54.930Z,69.80
2019-05-25T02:46:25.058Z,69.90
2019-05-25T02:48:55.103Z,69.40
2019-05-25T02:51:25.614Z,69.60
2019-05-25T02:53:55.799Z,69.50
2019-05-25T02:56:26.910Z,69.70
2019-05-25T02:58:57.078Z,69.50
2019-05-25T03:01:27.173Z,69.60
2019-05-25T03:03:57.361Z,69.40
2019-05-25T03:06:28.641Z,69.70
2019-05-25T03:08:59.224Z,69.80
2019-05-25T03:11:31.886Z,69.90
2019-05-25T03:14:03.242Z,70.30
2019-05-25T03:16:33.347Z,70.20
2019-05-25T03:19:03.573Z,70.40
2019-05-25T03:21:33.637Z,70.20
2019-05-25T03:24:03.752Z,70.10
2019-05-25T03:26:33.854Z,70.40
2019-05-25T03:29:04.362Z,70.30
2019-05-25T03:31:34.554Z,70.30
2019-05-25T03:34:05.044Z,70.40
2019-05-25T03:36:35.541Z,70.30
2019-05-25T03:39:07.883Z,70.00
2019-05-25T03:41:38.343Z,69.50
2019-05-25T03:44:08.392Z,69.70
2019-05-25T03:46:38.434Z,69.90
2019-05-25T03:49:08.494Z,70.50
2019-05-25T03:51:38.672Z,72.00
2019-05-25T03:54:09.042Z,71.30
2019-05-25T03:56:39.100Z,71.20
2019-05-25T03:59:09.591Z,70.90
2019-05-25T04:01:39.786Z,70.80
2019-05-25T04:04:09.832Z,71.10
2019-05-25T04:06:40.350Z,71.00
2019-05-25T04:09:10.385Z,70.70
2019-05-25T04:11:40.502Z,71.20
2019-05-25T04:14:11.624Z,71.20
2019-05-25T04:16:41.661Z,71.40
2019-05-25T04:19:11.725Z,71.30
2019-05-25T04:21:41.786Z,71.10
2019-05-25T04:24:15.285Z,70.90
2019-05-25T04:26:44.537Z,70.70
2019-05-25T04:29:14.496Z,71.00
2019-05-25T04:31:44.538Z,71.20
2019-05-25T04:34:14.606Z,71.40
2019-05-25T04:36:44.660Z,71.60
2019-05-25T04:39:14.705Z,71.30
2019-05-25T04:41:45.118Z,71.60
2019-05-25T04:44:15.162Z,71.70
2019-05-25T04:46:45.203Z,71.70
2019-05-25T04:49:15.314Z,71.70
2019-05-25T04:51:45.365Z,71.80
2019-05-25T04:54:15.802Z,72.60
2019-05-25T04:56:46.226Z,71.70
2019-05-25T04:59:16.285Z,71.90
2019-05-25T05:01:46.774Z,71.40
2019-05-25T05:04:16.827Z,71.40
2019-05-25T05:06:46.947Z,71.50
2019-05-25T05:09:16.962Z,71.40
2019-05-25T05:11:47.389Z,71.40
2019-05-25T05:14:17.482Z,71.00
2019-05-25T05:16:48.038Z,71.20
2019-05-25T05:19:18.056Z,71.60
2019-05-25T05:21:48.106Z,71.30
2019-05-25T05:24:18.592Z,72.10
2019-05-25T05:26:55.655Z,71.10
2019-05-25T05:29:20.306Z,70.80
2019-05-25T05:31:50.413Z,70.80
2019-05-25T05:34:20.531Z,70.80
2019-05-25T05:36:51.319Z,70.70
2019-05-25T05:39:23.030Z,70.20
2019-05-25T05:41:55.254Z,70.10
2019-05-25T05:44:28.760Z,70.30
2019-05-25T05:47:01.350Z,70.20
2019-05-25T05:49:33.182Z,69.80
2019-05-25T05:52:03.295Z,69.80
2019-05-25T05:54:33.477Z,69.80
2019-05-25T05:57:12.510Z,69.80
2019-05-25T05:59:35.334Z,69.60
2019-05-25T06:02:06.545Z,69.60
2019-05-25T06:04:36.663Z,69.70
2019-05-25T06:07:06.698Z,69.40
2019-05-25T06:09:36.801Z,69.40
2019-05-25T06:12:06.934Z,69.80
2019-05-25T06:14:37.046Z,70.20
2019-05-25T06:17:07.098Z,70.40
2019-05-25T06:19:37.486Z,70.70
2019-05-25T06:22:07.994Z,70.40
2019-05-25T06:24:38.036Z,71.00
2019-05-25T06:27:08.113Z,70.40
2019-05-25T06:29:38.275Z,69.00
2019-05-25T06:32:08.409Z,69.50
2019-05-25T06:34:38.816Z,69.70
2019-05-25T06:37:09.246Z,69.70
2019-05-25T06:39:39.296Z,70.00
2019-05-25T06:42:09.403Z,70.00
2019-05-25T06:44:39.552Z,69.90
2019-05-25T06:47:09.648Z,70.90
2019-05-25T06:49:39.699Z,70.90
2019-05-25T06:52:10.163Z,70.10
2019-05-25T06:54:40.687Z,70.80
2019-05-25T06:57:11.127Z,71.10
2019-05-25T06:59:41.175Z,69.90
2019-05-25T07:02:11.296Z,70.00
2019-05-25T07:04:41.339Z,70.70
2019-05-25T07:07:11.407Z,70.80
2019-05-25T07:09:41.947Z,69.00
2019-05-25T07:12:11.979Z,67.80
2019-05-25T07:14:42.037Z,66.80
2019-05-25T07:17:12.201Z,66.00
2019-05-25T07:19:42.242Z,65.40
2019-05-25T07:22:12.621Z,65.20
2019-05-25T07:24:42.745Z,64.30
2019-05-25T07:27:13.146Z,64.70
2019-05-25T07:29:43.174Z,64.40
2019-05-25T07:32:13.224Z,64.00
2019-05-25T07:34:43.634Z,62.20
2019-05-25T07:37:13.674Z,61.80
2019-05-25T07:39:43.685Z,60.50
2019-05-25T07:42:13.783Z,60.70
2019-05-25T07:44:43.821Z,58.40
2019-05-25T07:47:13.844Z,57.30
2019-05-25T07:49:43.883Z,57.60
2019-05-25T07:52:13.980Z,56.90
2019-05-25T07:54:44.011Z,59.00
2019-05-25T07:57:14.508Z,56.40
2019-05-25T07:59:45.964Z,57.40
2019-05-25T08:02:16.383Z,57.80
2019-05-25T08:04:46.567Z,57.50
2019-05-25T08:07:16.744Z,56.10
2019-05-25T08:09:46.770Z,55.80
2019-05-25T08:12:16.878Z,54.10
2019-05-25T08:14:46.928Z,52.30
2019-05-25T08:17:16.964Z,53.80
2019-05-25T08:19:47.081Z,50.80
2019-05-25T08:22:17.557Z,48.90
2019-05-25T08:24:47.604Z,50.80
2019-05-25T08:27:17.624Z,50.90
2019-05-25T08:29:47.741Z,52.10
2019-05-25T08:32:18.127Z,51.10
2019-05-25T08:34:48.158Z,48.90
2019-05-25T08:37:18.191Z,48.40
2019-05-25T08:39:48.221Z,45.50
2019-05-25T08:42:18.277Z,47.10
2019-05-25T08:44:48.306Z,47.30
2019-05-25T08:47:18.344Z,47.70
2019-05-25T08:49:48.438Z,45.20
2019-05-25T08:52:18.872Z,45.20
2019-05-25T08:54:49.402Z,46.60
2019-05-25T08:57:19.425Z,46.10
2019-05-25T08:59:49.458Z,45.20
2019-05-25T09:02:19.491Z,44.50
2019-05-25T09:04:49.536Z,46.00
2019-05-25T09:07:19.558Z,45.90
2019-05-25T09:09:49.941Z,42.60
2019-05-25T09:12:20.346Z,42.70
2019-05-25T09:14:50.790Z,47.50
2019-05-25T09:17:21.308Z,48.30
2019-05-25T09:19:51.414Z,47.80
2019-05-25T09:22:22.887Z,48.60
2019-05-25T09:24:52.910Z,48.70
2019-05-25T09:27:23.018Z,48.60
2019-05-25T09:29:53.440Z,47.90
2019-05-25T09:32:23.478Z,47.50
2019-05-25T09:34:53.501Z,46.40
2019-05-25T09:37:23.539Z,45.60
2019-05-25T09:39:53.580Z,43.80
2019-05-25T09:42:24.142Z,44.30
2019-05-25T09:44:54.577Z,44.70
2019-05-25T09:47:24.603Z,43.50
2019-05-25T09:49:55.124Z,43.80
2019-05-25T09:52:25.544Z,43.30
2019-05-25T09:54:55.809Z,44.60
2019-05-25T09:57:27.101Z,43.80
2019-05-25T09:59:57.740Z,44.20
2019-05-25T10:02:27.780Z,43.60
2019-05-25T10:04:57.968Z,43.50
2019-05-25T10:07:28.006Z,43.30
2019-05-25T10:09:58.187Z,42.10
2019-05-25T10:12:28.554Z,44.00
2019-05-25T10:14:58.580Z,44.80
2019-05-25T10:17:28.605Z,44.70
2019-05-25T10:19:59.173Z,44.10
2019-05-25T10:22:29.311Z,44.70
2019-05-25T10:24:59.784Z,44.20
2019-05-25T10:27:29.828Z,44.00
2019-05-25T10:29:59.995Z,44.20
2019-05-25T10:32:30.030Z,43.80
2019-05-25T10:35:00.076Z,44.90
2019-05-25T10:37:30.251Z,44.70
2019-05-25T10:40:00.701Z,43.80
2019-05-25T10:42:31.127Z,45.80
2019-05-25T10:45:01.143Z,47.30
2019-05-25T10:47:31.394Z,47.90
2019-05-25T10:50:01.430Z,48.00
2019-05-25T10:52:31.804Z,48.10
2019-05-25T10:55:02.014Z,48.60
2019-05-25T10:57:33.570Z,48.00
2019-05-25T11:00:08.869Z,48.20
2019-05-25T11:02:40.348Z,47.60
2019-05-25T11:05:11.040Z,47.20
2019-05-25T11:07:41.269Z,46.90
2019-05-25T11:10:13.039Z,47.90
2019-05-25T11:12:43.447Z,49.70
2019-05-25T11:15:14.463Z,50.80
2019-05-25T11:17:44.580Z,50.40
2019-05-25T11:20:15.622Z,50.60
2019-05-25T11:22:45.668Z,51.50
2019-05-25T11:25:16.134Z,51.90
2019-05-25T11:27:46.301Z,52.10
2019-05-25T11:30:17.076Z,51.50
2019-05-25T11:32:47.242Z,54.30
2019-05-25T11:35:17.757Z,53.40
2019-05-25T11:37:47.860Z,52.60
2019-05-25T11:40:19.843Z,54.80
2019-05-25T11:42:49.941Z,55.00
2019-05-25T11:45:20.331Z,56.50
2019-05-25T11:47:50.671Z,57.30
2019-05-25T11:50:20.967Z,57.50
2019-05-25T11:52:51.092Z,57.40
2019-05-25T11:55:21.904Z,56.90
2019-05-25T11:57:52.013Z,60.40
2019-05-25T12:00:25.680Z,56.20
2019-05-25T12:02:55.867Z,54.50
2019-05-25T12:05:25.893Z,55.70
2019-05-25T12:07:55.929Z,55.60
2019-05-25T12:10:25.970Z,56.50
2019-05-25T12:12:56.188Z,56.20
2019-05-25T12:15:26.239Z,56.40
2019-05-25T12:17:56.306Z,57.40
2019-05-25T12:20:26.346Z,57.40
2019-05-25T12:22:56.366Z,57.20
2019-05-25T12:25:26.780Z,56.80
2019-05-25T12:27:56.818Z,57.50
2019-05-25T12:30:39.640Z,56.70
2019-05-25T12:32:58.582Z,56.10
2019-05-25T12:35:28.669Z,56.00
2019-05-25T12:37:58.713Z,56.00
2019-05-25T12:40:28.886Z,56.90
2019-05-25T12:42:58.919Z,57.30
2019-05-25T12:45:29.136Z,58.40
2019-05-25T12:47:59.191Z,58.40
2019-05-25T12:50:29.246Z,57.90
2019-05-25T12:53:00.589Z,57.70
2019-05-25T12:55:30.630Z,57.90
2019-05-25T12:58:01.145Z,57.70
2019-05-25T13:00:31.663Z,57.20
2019-05-25T13:03:01.733Z,58.90
2019-05-25T13:05:34.720Z,60.30
2019-05-25T13:08:06.169Z,59.50
2019-05-25T13:10:36.194Z,59.80
2019-05-25T13:13:06.312Z,61.50
2019-05-25T13:15:36.735Z,60.30
2019-05-25T13:18:07.107Z,59.10
2019-05-25T13:20:37.300Z,61.40
2019-05-25T13:23:07.407Z,61.50
2019-05-25T13:25:37.443Z,61.20
2019-05-25T13:28:07.543Z,60.40
2019-05-25T13:30:37.593Z,60.70
2019-05-25T13:33:07.694Z,61.40
2019-05-25T13:35:37.739Z,60.80
2019-05-25T13:38:07.781Z,61.70
2019-05-25T13:40:38.283Z,61.80
2019-05-25T13:43:08.712Z,61.40
2019-05-25T13:45:38.810Z,62.00
2019-05-25T13:48:08.908Z,61.90
2019-05-25T13:50:38.938Z,62.50
2019-05-25T13:53:09.057Z,63.20
2019-05-25T13:55:39.406Z,63.90
2019-05-25T13:58:09.430Z,63.90
2019-05-25T14:00:39.483Z,64.10
2019-05-25T14:03:09.569Z,63.90
2019-05-25T14:05:39.657Z,65.10
2019-05-25T14:08:09.652Z,64.50
2019-05-25T14:10:39.692Z,66.30
2019-05-25T14:13:10.249Z,66.80
2019-05-25T14:15:40.365Z,66.20
2019-05-25T14:18:10.807Z,66.70
2019-05-25T14:20:40.893Z,68.60
2019-05-25T14:23:10.962Z,68.00
2019-05-25T14:25:41.181Z,69.60
2019-05-25T14:28:11.239Z,90.20
2019-05-25T14:30:41.266Z,91.00
2019-05-25T14:33:11.377Z,91.50
2019-05-25T14:35:42.354Z,91.80
2019-05-25T14:38:12.395Z,91.90
2019-05-25T14:40:42.508Z,90.70
2019-05-25T14:43:13.014Z,90.00
2019-05-25T14:45:43.135Z,89.30
2019-05-25T14:48:13.572Z,89.80
2019-05-25T14:50:43.670Z,90.00
2019-05-25T14:53:13.757Z,89.80
2019-05-25T14:55:43.785Z,90.00
2019-05-25T14:58:13.830Z,87.30
2019-05-25T15:00:44.198Z,87.60
2019-05-25T15:03:15.355Z,87.90
2019-05-25T15:05:45.558Z,88.50
2019-05-25T15:08:16.030Z,89.90
2019-05-25T15:10:46.502Z,89.40
2019-05-25T15:13:16.605Z,90.10
2019-05-25T15:15:47.028Z,88.40
2019-05-25T15:18:17.045Z,88.60
2019-05-25T15:20:48.162Z,88.30
2019-05-25T15:23:18.199Z,88.40
2019-05-25T15:25:48.649Z,88.60
2019-05-25T15:28:19.060Z,89.00
2019-05-25T15:30:49.244Z,88.70
2019-05-25T15:33:19.510Z,88.70
2019-05-25T15:35:49.705Z,88.70
2019-05-25T15:38:20.169Z,88.70
2019-05-25T15:40:50.200Z,88.60
2019-05-25T15:43:20.698Z,87.90
2019-05-25T15:45:51.134Z,87.80
2019-05-25T15:48:21.222Z,88.40
2019-05-25T15:50:51.405Z,88.00
2019-05-25T15:53:21.574Z,87.00
2019-05-25T15:55:52.016Z,86.90
2019-05-25T15:58:22.066Z,86.40
2019-05-25T16:00:53.230Z,86.50
2019-05-25T16:03:23.734Z,86.60
2019-05-25T16:05:53.843Z,87.30
2019-05-25T16:08:23.963Z,87.20
2019-05-25T16:10:54.478Z,86.80
2019-05-25T16:13:24.671Z,86.40
2019-05-25T16:15:54.717Z,86.00
2019-05-25T16:18:24.753Z,84.70
2019-05-25T16:20:54.786Z,83.90
2019-05-25T16:23:24.921Z,84.40
2019-05-25T16:25:55.014Z,84.30
2019-05-25T16:28:25.531Z,85.10
2019-05-25T16:30:56.060Z,83.50
2019-05-25T16:33:26.192Z,83.20
2019-05-25T16:35:58.039Z,82.80
2019-05-25T16:38:28.776Z,81.50
2019-05-25T16:40:58.811Z,81.00
2019-05-25T16:43:28.846Z,82.00
2019-05-25T16:45:58.889Z,81.20
2019-05-25T16:48:28.937Z,81.80
2019-05-25T16:50:58.966Z,82.40
2019-05-25T16:53:29.021Z,81.50
2019-05-25T16:55:59.494Z,82.50
2019-05-25T16:58:30.042Z,82.50
2019-05-25T17:01:01.434Z,82.70
2019-05-25T17:03:31.813Z,83.70
2019-05-25T17:06:02.228Z,83.60
2019-05-25T17:08:32.322Z,84.20
2019-05-25T17:11:02.443Z,85.20
2019-05-25T17:13:32.467Z,85.90
2019-05-25T17:16:02.505Z,85.70
2019-05-25T17:18:32.616Z,84.90
2019-05-25T17:21:02.728Z,83.90
2019-05-25T17:23:32.773Z,85.00
2019-05-25T17:26:03.045Z,85.20
2019-05-25T17:28:33.236Z,85.30
2019-05-25T17:31:04.858Z,85.10
2019-05-25T17:33:45.421Z,84.80
2019-05-25T17:36:08.078Z,84.30
2019-05-25T17:38:38.186Z,84.90
2019-05-25T17:41:08.228Z,83.90
2019-05-25T17:43:38.268Z,84.30
2019-05-25T17:46:08.367Z,84.20
2019-05-25T17:48:38.426Z,82.80
2019-05-25T17:51:08.463Z,82.30
2019-05-25T17:53:38.814Z,81.20
2019-05-25T17:56:08.858Z,80.00
2019-05-25T17:58:39.251Z,79.40
2019-05-25T18:01:09.678Z,79.30
2019-05-25T18:03:39.714Z,79.50
2019-05-25T18:06:10.223Z,79.10
2019-05-25T18:08:40.274Z,79.10
2019-05-25T18:11:10.389Z,79.10
2019-05-25T18:13:40.453Z,79.00
2019-05-25T18:16:11.006Z,78.80
2019-05-25T18:18:41.045Z,78.50
2019-05-25T18:21:11.179Z,78.60
2019-05-25T18:23:41.576Z,78.40
2019-05-25T18:26:11.618Z,78.50
2019-05-25T18:28:41.667Z,78.30
2019-05-25T18:31:12.147Z,78.10
2019-05-25T18:33:42.567Z,77.80
2019-05-25T18:36:12.928Z,77.70
2019-05-25T18:38:43.029Z,77.50
2019-05-25T18:41:13.575Z,78.40
2019-05-25T18:43:43.995Z,78.50
2019-05-25T18:46:14.121Z,78.40
2019-05-25T18:48:44.194Z,78.20
2019-05-25T18:51:14.234Z,78.30
2019-05-25T18:53:44.355Z,78.00
2019-05-25T18:56:14.395Z,79.20
2019-05-25T18:58:44.783Z,79.00
2019-05-25T19:01:15.329Z,80.10
2019-05-25T19:03:45.430Z,80.80
2019-05-25T19:06:15.560Z,80.80
2019-05-25T19:08:45.688Z,81.30
2019-05-25T19:11:16.526Z,81.60
2019-05-25T19:13:46.635Z,81.90
2019-05-25T19:16:16.689Z,82.30
2019-05-25T19:18:46.819Z,82.50
2019-05-25T19:21:16.863Z,82.50
2019-05-25T19:23:46.925Z,82.70
2019-05-25T19:26:17.099Z,83.50
2019-05-25T19:28:47.630Z,83.50
2019-05-25T19:31:17.746Z,84.30
2019-05-25T19:33:47.869Z,83.50
2019-05-25T19:36:17.971Z,84.00
2019-05-25T19:38:48.105Z,83.60
2019-05-25T19:41:19.863Z,82.80
2019-05-25T19:43:50.599Z,82.90
2019-05-25T19:46:20.819Z,83.10
2019-05-25T19:48:52.245Z,83.40
2019-05-25T19:51:22.701Z,82.80
2019-05-25T19:53:53.233Z,83.00
2019-05-25T19:56:23.451Z,84.10
2019-05-25T19:58:53.567Z,83.90
2019-05-25T20:01:23.687Z,83.40
2019-05-25T20:03:57.212Z,83.90
2019-05-25T20:06:25.566Z,83.50
2019-05-25T20:08:55.686Z,83.20
2019-05-25T20:11:26.247Z,84.50
2019-05-25T20:13:56.334Z,83.60
2019-05-25T20:16:26.456Z,83.20
2019-05-25T20:18:56.577Z,83.40
2019-05-25T20:21:26.694Z,83.80
2019-05-25T20:23:57.530Z,83.70
2019-05-25T20:26:28.573Z,84.40
2019-05-25T20:28:58.691Z,83.80
2019-05-25T20:31:28.813Z,84.20
2019-05-25T20:33:58.932Z,84.00
2019-05-25T20:36:28.952Z,84.10
2019-05-25T20:38:59.071Z,84.50
2019-05-25T20:41:29.192Z,85.70
2019-05-25T20:43:59.306Z,85.00
2019-05-25T20:46:29.836Z,85.60
2019-05-25T20:49:00.161Z,85.50
2019-05-25T20:51:30.279Z,85.40
2019-05-25T20:54:00.399Z,85.40
2019-05-25T20:56:31.032Z,85.10
2019-05-25T20:59:02.589Z,84.80
2019-05-25T21:01:32.822Z,84.70
2019-05-25T21:04:02.928Z,85.60
2019-05-25T21:06:33.148Z,85.80
2019-05-25T21:09:03.371Z,85.30
2019-05-25T21:11:33.593Z,85.40
2019-05-25T21:14:04.634Z,85.00
2019-05-25T21:16:35.778Z,85.80
2019-05-25T21:19:05.950Z,85.80
2019-05-25T21:21:36.434Z,71.60
2019-05-25T21:24:06.983Z,70.80
2019-05-25T21:26:37.107Z,71.20
2019-05-25T21:29:07.287Z,71.10
2019-05-25T21:31:37.849Z,71.10
2019-05-25T21:34:08.384Z,71.00
2019-05-25T21:36:38.562Z,70.90
2019-05-25T21:39:08.736Z,70.60
2019-05-25T21:41:38.866Z,70.60
2019-05-25T21:44:09.270Z,70.90
2019-05-25T21:46:39.709Z,71.00
2019-05-25T21:49:09.898Z,71.10
2019-05-25T21:51:39.992Z,71.20
2019-05-25T21:54:10.157Z,71.00
2019-05-25T21:56:40.208Z,71.30
2019-05-25T21:59:10.374Z,71.00
2019-05-25T22:01:40.538Z,71.00
2019-05-25T22:04:10.856Z,70.30
2019-05-25T22:06:41.520Z,69.90
2019-05-25T22:09:12.137Z,70.00
2019-05-25T22:11:42.371Z,69.70
2019-05-25T22:14:13.520Z,69.50
2019-05-25T22:16:43.734Z,70.60
2019-05-25T22:19:13.796Z,70.60
2019-05-25T22:21:46.049Z,70.90
2019-05-25T22:24:15.523Z,70.60
2019-05-25T22:26:45.555Z,70.30
2019-05-25T22:29:15.581Z,70.20
2019-05-25T22:31:45.624Z,71.10
2019-05-25T22:34:15.639Z,71.70
2019-05-25T22:36:45.890Z,72.10
2019-05-25T22:39:16.009Z,72.50
2019-05-25T22:41:46.207Z,71.60
2019-05-25T22:44:16.517Z,70.30
2019-05-25T22:46:46.651Z,70.10
2019-05-25T22:49:16.861Z,70.40
2019-05-25T22:51:46.989Z,71.30
2019-05-25T22:54:18.088Z,69.90
2019-05-25T22:56:48.711Z,70.20
2019-05-25T22:59:18.850Z,71.40
2019-05-25T23:01:48.930Z,70.90
2019-05-25T23:04:19.102Z,71.80
2019-05-25T23:06:57.862Z,71.10
2019-05-25T23:09:21.325Z,71.60
2019-05-25T23:11:51.359Z,71.50
2019-05-25T23:14:21.382Z,72.00
2019-05-25T23:16:51.412Z,72.50
2019-05-25T23:19:21.462Z,72.50
2019-05-25T23:21:51.822Z,72.80
2019-05-25T23:24:22.246Z,72.30
2019-05-25T23:26:52.342Z,72.60
2019-05-25T23:29:22.456Z,73.10
2019-05-25T23:31:52.572Z,73.50
2019-05-25T23:34:22.639Z,73.70
2019-05-25T23:36:52.745Z,74.00
2019-05-25T23:39:22.792Z,74.00
2019-05-25T23:41:52.918Z,74.30
2019-05-25T23:44:23.033Z,74.30
2019-05-25T23:46:53.147Z,74.10
2019-05-25T23:49:24.579Z,73.60
2019-05-25T23:51:54.681Z,73.90
2019-05-25T23:54:24.702Z,73.80
2019-05-25T23:56:54.740Z,73.70
2019-05-25T23:59:24.776Z,73.50
